Time;durP1;ratioP1;P1;durP2;ratioP2;P2;SDS_P1;SDS_P2;PMS_P1;PMS_P2;Temp;Humidity;BMP_temperature;BMP_pressure;BME280_temperature;BME280_humidity;BME280_pressure;Samples;Min_cycle;Max_cycle;Signal;HPM_P1;HPM_P2
2022/01/14 00:00:38;;;;;;;39.72;23.85;;;-2.70;99.90;;;;;;5030777;28;20495;-52
2022/01/14 00:03:04;;;;;;;41.85;24.65;;;-2.70;99.90;;;;;;5031141;28;20106;-53
2022/01/14 00:05:30;;;;;;;46.28;25.58;;;-2.80;99.90;;;;;;5030730;28;20474;-54
2022/01/14 00:07:55;;;;;;;45.08;23.73;;;-2.80;99.90;;;;;;5030774;28;20087;-55
2022/01/14 00:10:21;;;;;;;49.97;25.52;;;-2.80;99.90;;;;;;5030797;28;20709;-52
2022/01/14 00:12:53;;;;;;;47.97;24.45;;;-2.80;99.90;;;;;;5030663;28;20512;-52
2022/01/14 00:15:26;;;;;;;46.22;26.50;;;-2.80;99.90;;;;;;5030659;28;20042;-51
2022/01/14 00:17:53;;;;;;;46.60;24.08;;;-3.00;99.90;;;;;;5030621;28;20483;-55
2022/01/14 00:20:20;;;;;;;42.47;23.20;;;-3.00;99.90;;;;;;5030627;28;20029;-52
2022/01/14 00:22:45;;;;;;;44.95;25.38;;;-3.00;99.90;;;;;;5029113;28;20021;-54
2022/01/14 00:33:23;;;;;;;42.97;24.38;;;-3.00;99.90;;;;;;5030450;28;20032;-55
2022/01/14 00:35:49;;;;;;;45.95;25.02;;;-3.00;99.90;;;;;;5029747;28;20026;-52
2022/01/14 00:38:14;;;;;;;43.55;25.20;;;-3.00;99.90;;;;;;5030346;28;20029;-53
2022/01/14 00:40:41;;;;;;;43.97;24.27;;;-3.00;99.90;;;;;;5030467;28;20021;-55
2022/01/14 00:43:08;;;;;;;42.50;24.05;;;-3.10;99.90;;;;;;5030332;28;20428;-52
2022/01/14 00:45:34;;;;;;;43.53;23.65;;;-3.00;99.90;;;;;;5030177;28;20033;-53
2022/01/14 00:48:02;;;;;;;45.65;24.05;;;-3.10;99.90;;;;;;5030564;28;20370;-52
2022/01/14 00:50:28;;;;;;;47.75;24.88;;;-3.10;99.90;;;;;;5030310;28;20116;-54
2022/01/14 00:52:54;;;;;;;39.13;22.10;;;-3.10;99.90;;;;;;5030254;28;20021;-55
2022/01/14 00:55:27;;;;;;;42.05;23.17;;;-3.10;99.90;;;;;;5030216;28;20420;-55
2022/01/14 01:00:23;;;;;;;40.67;23.15;;;-3.10;99.90;;;;;;5030449;28;19913;-55
2022/01/14 01:02:49;;;;;;;42.13;22.38;;;-3.20;99.90;;;;;;5030249;28;20229;-53
2022/01/14 01:05:15;;;;;;;49.08;24.98;;;-3.20;99.90;;;;;;5030210;28;20017;-53
2022/01/14 01:07:43;;;;;;;40.72;23.42;;;-3.30;99.90;;;;;;5029832;28;20653;-55
2022/01/14 01:10:11;;;;;;;44.63;23.25;;;-3.20;99.90;;;;;;5028817;28;20616;-56
2022/01/14 01:15:06;;;;;;;39.60;23.02;;;-3.20;99.90;;;;;;5030087;28;20053;-54
2022/01/14 01:17:33;;;;;;;47.78;23.58;;;-3.20;99.90;;;;;;5029764;28;20025;-55
2022/01/14 01:20:00;;;;;;;41.45;22.77;;;-3.20;99.90;;;;;;5030105;28;20536;-53
2022/01/14 01:22:26;;;;;;;44.72;23.45;;;-3.20;99.90;;;;;;5029963;28;20382;-54
2022/01/14 01:24:52;;;;;;;45.22;24.17;;;-3.20;99.90;;;;;;5029902;28;20377;-53
2022/01/14 01:27:20;;;;;;;42.97;24.13;;;-3.20;99.90;;;;;;5029936;28;20111;-55
2022/01/14 01:29:59;;;;;;;39.55;24.45;;;-3.30;99.90;;;;;;5029800;28;20029;-52
2022/01/14 01:32:25;;;;;;;53.67;24.88;;;-3.30;99.90;;;;;;5030028;28;20049;-55
2022/01/14 01:34:51;;;;;;;37.65;23.83;;;-3.30;99.90;;;;;;5028542;28;20056;-54
2022/01/14 01:37:16;;;;;;;43.65;24.40;;;-3.30;99.90;;;;;;5029766;28;20547;-51
2022/01/14 01:39:42;;;;;;;40.05;22.13;;;-3.30;99.90;;;;;;5029651;28;20092;-56
2022/01/14 01:42:09;;;;;;;40.08;21.42;;;-3.30;99.90;;;;;;5029858;28;20469;-51
2022/01/14 01:44:38;;;;;;;48.90;26.83;;;-3.30;99.90;;;;;;5029586;28;20057;-52
2022/01/14 01:47:04;;;;;;;43.15;21.02;;;-3.30;99.90;;;;;;5030374;28;20101;-52
2022/01/14 01:49:32;;;;;;;44.95;21.83;;;-3.30;99.90;;;;;;5033094;28;20021;-56
2022/01/14 01:51:59;;;;;;;37.92;20.38;;;-3.30;99.90;;;;;;5033319;28;20414;-54
2022/01/14 01:54:25;;;;;;;41.38;20.92;;;-3.30;99.90;;;;;;5033532;28;20083;-53
2022/01/14 01:56:52;;;;;;;37.75;20.15;;;-3.30;99.90;;;;;;5033194;28;20450;-52
2022/01/14 01:59:18;;;;;;;42.65;20.77;;;-3.30;99.90;;;;;;5033309;28;20373;-54
2022/01/14 02:01:44;;;;;;;38.33;20.35;;;-3.30;99.90;;;;;;5033038;28;20048;-51
2022/01/14 02:04:10;;;;;;;40.45;20.63;;;-3.30;99.90;;;;;;5033123;28;20454;-52
2022/01/14 02:06:37;;;;;;;30.25;18.77;;;-3.30;99.90;;;;;;5031644;28;20087;-51
2022/01/14 02:09:04;;;;;;;39.10;20.52;;;-3.30;99.90;;;;;;5033037;28;20018;-53
2022/01/14 02:11:30;;;;;;;32.65;18.63;;;-3.30;99.90;;;;;;5033004;28;20405;-52
2022/01/14 02:13:58;;;;;;;32.92;19.30;;;-3.30;99.90;;;;;;5032714;28;20451;-54
2022/01/14 02:16:59;;;;;;;47.15;22.05;;;-3.30;99.90;;;;;;5031694;28;20400;-52
2022/01/14 02:19:26;;;;;;;35.28;19.75;;;-3.30;99.90;;;;;;5032627;28;20398;-52
2022/01/14 02:27:05;;;;;;;33.92;20.52;;;-3.30;99.90;;;;;;5032941;28;20610;-51
2022/01/14 02:29:31;;;;;;;34.20;19.60;;;-3.40;99.90;;;;;;5031257;28;20029;-52
2022/01/14 02:31:57;;;;;;;39.97;19.58;;;-3.40;99.90;;;;;;5032824;28;20392;-54
2022/01/14 02:34:22;;;;;;;37.22;21.33;;;-3.40;99.90;;;;;;5032509;28;20030;-52
2022/01/14 02:36:48;;;;;;;31.80;19.88;;;-3.40;99.90;;;;;;5032617;28;20389;-54
2022/01/14 02:39:16;;;;;;;39.30;19.70;;;-3.40;99.90;;;;;;5032482;28;20370;-53
2022/01/14 02:41:44;;;;;;;39.38;21.83;;;-3.40;99.90;;;;;;5032305;28;20120;-52
2022/01/14 02:44:18;;;;;;;41.88;21.40;;;-3.40;99.90;;;;;;5032410;28;20025;-54
2022/01/14 02:46:52;;;;;;;37.35;20.20;;;-3.50;99.90;;;;;;5032259;28;20025;-52
2022/01/14 02:49:18;;;;;;;37.47;19.73;;;-3.40;99.90;;;;;;5032216;28;20021;-53
2022/01/14 02:51:44;;;;;;;38.30;21.65;;;-3.40;99.90;;;;;;5032127;28;20112;-52
2022/01/14 02:54:16;;;;;;;38.95;20.85;;;-3.50;99.90;;;;;;5030931;28;20113;-52
2022/01/14 02:56:48;;;;;;;41.17;20.48;;;-3.50;99.90;;;;;;5032119;28;20017;-54
2022/01/14 02:59:16;;;;;;;38.80;20.92;;;-3.50;99.90;;;;;;5031557;28;20374;-52
2022/01/14 03:01:44;;;;;;;32.70;20.23;;;-3.50;99.90;;;;;;5031970;28;20029;-53
2022/01/14 03:04:13;;;;;;;28.75;18.35;;;-3.50;99.90;;;;;;5032033;28;20028;-51
2022/01/14 03:06:46;;;;;;;41.63;20.15;;;-3.50;99.90;;;;;;5031864;28;20068;-51
2022/01/14 03:09:12;;;;;;;42.67;20.50;;;-3.50;99.90;;;;;;5031895;28;20049;-54
2022/01/14 03:11:44;;;;;;;32.58;19.30;;;-3.50;99.90;;;;;;5031765;28;20546;-53
2022/01/14 03:14:10;;;;;;;38.38;22.13;;;-3.50;99.90;;;;;;5031669;28;20072;-51
2022/01/14 03:16:41;;;;;;;38.72;20.50;;;-3.40;99.90;;;;;;5031610;28;20431;-53
2022/01/14 03:19:14;;;;;;;42.63;20.33;;;-3.50;99.90;;;;;;5031726;28;20056;-53
2022/01/14 03:21:41;;;;;;;36.50;20.23;;;-3.50;99.90;;;;;;5031596;28;20086;-55
2022/01/14 03:26:45;;;;;;;37.30;20.63;;;-3.50;99.90;;;;;;5031475;28;20659;-54
2022/01/14 03:29:12;;;;;;;34.22;18.77;;;-3.40;99.90;;;;;;5031566;28;20021;-54
2022/01/14 03:31:38;;;;;;;145.18;44.30;;;-3.50;99.90;;;;;;5031236;28;20017;-54
2022/01/14 03:34:04;;;;;;;130.55;41.75;;;-3.50;99.90;;;;;;5031293;28;20512;-54
2022/01/14 03:36:29;;;;;;;59.53;22.25;;;-3.50;99.90;;;;;;5031219;28;20036;-52
2022/01/14 03:38:55;;;;;;;63.15;24.55;;;-3.50;99.90;;;;;;5031361;28;20021;-54
2022/01/14 03:41:21;;;;;;;48.28;20.92;;;-3.50;99.90;;;;;;5031299;28;20038;-55
2022/01/14 03:43:46;;;;;;;66.88;26.88;;;-3.50;99.90;;;;;;5031119;28;20033;-53
2022/01/14 03:46:12;;;;;;;40.72;20.58;;;-3.50;99.90;;;;;;5031184;28;20036;-54
2022/01/14 03:48:38;;;;;;;86.20;32.72;;;-3.50;99.90;;;;;;5031341;28;20030;-54
2022/01/14 03:51:04;;;;;;;42.50;20.27;;;-3.50;99.90;;;;;;5031132;28;20025;-54
2022/01/14 03:53:30;;;;;;;83.85;31.25;;;-3.50;99.90;;;;;;5029645;28;20485;-54
2022/01/14 03:55:55;;;;;;;76.35;31.50;;;-3.60;99.90;;;;;;5031211;28;20060;-53
2022/01/14 03:58:21;;;;;;;102.05;36.95;;;-3.60;99.90;;;;;;5029809;28;20025;-53
2022/01/14 04:00:47;;;;;;;145.13;42.50;;;-3.60;99.90;;;;;;5031070;28;20104;-52
2022/01/14 04:03:12;;;;;;;77.47;32.45;;;-3.60;99.90;;;;;;5030900;28;20033;-51
2022/01/14 04:05:38;;;;;;;75.75;28.77;;;-3.60;99.90;;;;;;5030623;28;20029;-52
2022/01/14 04:08:04;;;;;;;58.03;26.38;;;-3.60;99.90;;;;;;5030744;28;20083;-55
2022/01/14 04:10:30;;;;;;;60.85;25.95;;;-3.60;99.90;;;;;;5029934;28;20026;-52
2022/01/14 04:15:43;;;;;;;45.75;22.40;;;-3.50;99.90;;;;;;5030232;28;20428;-53
2022/01/14 04:18:15;;;;;;;53.72;21.58;;;-3.60;99.90;;;;;;5030814;28;20087;-54
2022/01/14 04:20:42;;;;;;;45.80;22.20;;;-3.60;99.90;;;;;;5029099;28;20025;-51
2022/01/14 04:23:11;;;;;;;43.40;22.08;;;-3.60;99.90;;;;;;5030484;28;20032;-53
2022/01/14 04:25:38;;;;;;;38.25;18.10;;;-3.60;99.90;;;;;;5029040;28;20021;-54
2022/01/14 04:28:06;;;;;;;44.35;20.48;;;-3.60;99.90;;;;;;5029134;28;20116;-52
2022/01/14 04:30:32;;;;;;;40.22;19.58;;;-3.60;99.90;;;;;;5030203;28;20036;-53
2022/01/14 04:32:58;;;;;;;34.95;19.63;;;-3.60;99.90;;;;;;5030543;28;20104;-52
2022/01/14 04:35:25;;;;;;;42.47;20.40;;;-3.60;99.90;;;;;;5030500;28;20155;-54
2022/01/14 04:37:51;;;;;;;35.50;18.10;;;-3.60;99.90;;;;;;5030213;28;20560;-51
2022/01/14 04:40:17;;;;;;;37.80;19.98;;;-3.60;99.90;;;;;;5030490;28;20108;-52
2022/01/14 04:42:43;;;;;;;38.88;20.30;;;-3.60;99.90;;;;;;5030370;28;20093;-51
2022/01/14 04:45:11;;;;;;;37.05;19.90;;;-3.60;99.90;;;;;;5029002;28;20116;-52
2022/01/14 04:47:46;;;;;;;36.35;18.05;;;-3.50;99.90;;;;;;5030247;28;20026;-53
2022/01/14 04:50:15;;;;;;;36.47;18.15;;;-3.50;99.90;;;;;;5030371;28;20092;-52
2022/01/14 04:52:43;;;;;;;31.42;18.50;;;-3.60;99.90;;;;;;5030099;28;20018;-53
2022/01/14 04:55:11;;;;;;;37.00;17.95;;;-3.60;99.90;;;;;;5030312;28;20028;-54
2022/01/14 04:57:37;;;;;;;30.38;17.40;;;-3.60;99.90;;;;;;5030027;28;20037;-52
2022/01/14 05:00:11;;;;;;;34.40;18.60;;;-3.60;99.90;;;;;;5029949;28;20041;-51
2022/01/14 05:02:37;;;;;;;24.42;15.85;;;-3.60;99.90;;;;;;5029988;28;20021;-52
2022/01/14 05:05:07;;;;;;;29.98;16.00;;;-3.60;99.90;;;;;;5030062;28;20052;-53
2022/01/14 05:07:34;;;;;;;24.77;13.85;;;-3.60;99.90;;;;;;5029923;28;20065;-53
2022/01/14 05:12:28;;;;;;;27.13;15.63;;;-3.60;99.90;;;;;;5030010;28;20520;-54
2022/01/14 05:14:53;;;;;;;19.65;13.82;;;-3.60;99.90;;;;;;5029777;28;20056;-51
2022/01/14 05:17:19;;;;;;;24.77;15.25;;;-3.60;99.90;;;;;;5029926;28;20388;-54
2022/01/14 05:19:45;;;;;;;23.58;14.00;;;-3.60;99.90;;;;;;5029878;28;20676;-56
2022/01/14 05:22:11;;;;;;;21.65;14.15;;;-3.60;99.90;;;;;;5030851;28;20025;-52
2022/01/14 05:24:37;;;;;;;20.60;13.07;;;-3.70;99.90;;;;;;5033366;28;20017;-54
2022/01/14 05:27:03;;;;;;;24.63;12.95;;;-3.70;99.90;;;;;;5033871;28;20422;-55
2022/01/14 05:29:29;;;;;;;19.77;12.50;;;-3.70;99.90;;;;;;5033721;28;20025;-55
2022/01/14 05:32:03;;;;;;;20.60;13.65;;;-3.70;99.90;;;;;;5033713;28;20030;-55
2022/01/14 05:34:33;;;;;;;21.52;14.20;;;-3.70;99.90;;;;;;5033612;28;20488;-55
2022/01/14 05:37:00;;;;;;;49.28;25.40;;;-3.70;99.90;;;;;;5033666;28;20033;-54
2022/01/14 05:39:26;;;;;;;34.45;19.63;;;-3.70;99.90;;;;;;5033637;28;20032;-52
2022/01/14 05:41:52;;;;;;;46.05;24.50;;;-3.70;99.90;;;;;;5032299;28;20026;-53
2022/01/14 05:44:19;;;;;;;67.10;34.38;;;-3.70;99.90;;;;;;5033539;28;20104;-54
2022/01/14 05:46:46;;;;;;;42.63;22.52;;;-3.70;99.90;;;;;;5033341;28;20057;-55
2022/01/14 05:49:12;;;;;;;38.60;19.63;;;-3.70;99.90;;;;;;5033400;28;20025;-52
2022/01/14 05:51:38;;;;;;;38.78;20.75;;;-3.70;99.90;;;;;;5033043;28;20099;-56
2022/01/14 05:54:04;;;;;;;41.30;23.00;;;-3.70;99.90;;;;;;5033385;28;20426;-55
2022/01/14 05:56:30;;;;;;;47.50;23.38;;;-3.70;99.90;;;;;;5033459;28;20433;-55
2022/01/14 05:58:55;;;;;;;38.10;19.30;;;-3.70;99.90;;;;;;5033492;28;20033;-52
2022/01/14 06:01:21;;;;;;;31.15;19.05;;;-3.70;99.90;;;;;;5033200;28;20472;-53
2022/01/14 06:03:47;;;;;;;33.28;18.85;;;-3.80;99.90;;;;;;5033066;28;20040;-54
2022/01/14 06:06:13;;;;;;;37.13;19.17;;;-3.80;99.90;;;;;;5033117;28;20014;-55
2022/01/14 06:08:38;;;;;;;33.80;19.67;;;-3.80;99.90;;;;;;5032485;28;20037;-54
2022/01/14 06:11:04;;;;;;;30.17;18.33;;;-3.80;99.90;;;;;;5032651;28;20017;-51
2022/01/14 06:13:30;;;;;;;35.75;18.95;;;-3.80;99.90;;;;;;5032672;28;20033;-53
2022/01/14 06:15:55;;;;;;;33.85;17.88;;;-3.80;99.90;;;;;;5032665;28;20046;-55
2022/01/14 06:18:21;;;;;;;29.95;17.42;;;-3.80;99.90;;;;;;5032808;28;20040;-54
2022/01/14 06:20:47;;;;;;;29.85;15.35;;;-3.80;99.90;;;;;;5032631;28;20451;-55
2022/01/14 06:23:12;;;;;;;33.47;17.15;;;-3.80;99.90;;;;;;5032800;28;20049;-55
2022/01/14 06:25:38;;;;;;;32.38;16.88;;;-3.80;99.90;;;;;;5032404;28;20460;-52
2022/01/14 06:28:04;;;;;;;27.98;15.93;;;-3.80;99.90;;;;;;5032763;28;20080;-52
2022/01/14 06:30:30;;;;;;;29.40;16.60;;;-3.90;99.90;;;;;;5032979;28;20366;-52
2022/01/14 06:32:56;;;;;;;29.13;16.50;;;-3.90;99.90;;;;;;5031896;28;20038;-55
2022/01/14 06:35:23;;;;;;;30.88;16.67;;;-3.90;99.90;;;;;;5032624;28;20037;-55
2022/01/14 06:37:49;;;;;;;34.40;17.38;;;-3.80;99.90;;;;;;5032870;28;20132;-53
2022/01/14 06:40:16;;;;;;;29.63;17.05;;;-3.80;99.90;;;;;;5033412;28;20073;-53
2022/01/14 06:42:42;;;;;;;27.05;16.67;;;-3.80;99.90;;;;;;5033347;28;20368;-54
2022/01/14 06:45:08;;;;;;;27.40;17.02;;;-3.80;99.90;;;;;;5033513;28;20026;-54
2022/01/14 06:47:34;;;;;;;31.30;17.98;;;-3.80;99.90;;;;;;5033346;28;20028;-55
2022/01/14 06:50:00;;;;;;;31.48;18.20;;;-3.70;99.90;;;;;;5031211;28;20397;-53
2022/01/14 06:52:26;;;;;;;25.85;16.48;;;-3.70;99.90;;;;;;5032968;28;20465;-55
2022/01/14 06:54:52;;;;;;;24.40;15.40;;;-3.70;99.90;;;;;;5033151;28;20039;-55
2022/01/14 06:57:17;;;;;;;34.05;17.17;;;-3.70;99.90;;;;;;5033132;28;20025;-52
2022/01/14 06:59:43;;;;;;;27.92;15.50;;;-3.70;99.90;;;;;;5033001;28;20059;-55
2022/01/14 07:02:12;;;;;;;33.55;17.50;;;-3.70;99.90;;;;;;5033281;28;20022;-56
2022/01/14 07:04:37;;;;;;;28.30;14.05;;;-3.70;99.90;;;;;;5031994;28;20105;-52
2022/01/14 07:07:04;;;;;;;25.67;16.00;;;-3.70;99.90;;;;;;5031429;28;20013;-55
2022/01/14 07:09:30;;;;;;;31.90;17.02;;;-3.70;99.90;;;;;;5031665;28;20048;-56
2022/01/14 07:11:58;;;;;;;36.17;17.98;;;-3.60;99.90;;;;;;5032215;28;20032;-56
2022/01/14 07:14:25;;;;;;;23.35;15.02;;;-3.60;99.90;;;;;;5032331;28;20069;-56
2022/01/14 07:16:50;;;;;;;31.23;14.45;;;-3.50;99.90;;;;;;5031484;28;20025;-56
2022/01/14 07:19:19;;;;;;;29.95;13.73;;;-3.50;99.90;;;;;;5031521;28;20362;-54
2022/01/14 07:21:44;;;;;;;20.15;13.07;;;-3.60;99.90;;;;;;5031165;28;20025;-56
2022/01/14 07:24:12;;;;;;;17.00;12.68;;;-3.60;99.90;;;;;;5030588;28;20083;-56
2022/01/14 07:26:39;;;;;;;30.27;14.75;;;-3.50;99.90;;;;;;5031516;28;20017;-54
2022/01/14 07:29:04;;;;;;;24.65;13.13;;;-3.50;99.90;;;;;;5031633;28;20026;-56
2022/01/14 07:31:30;;;;;;;21.77;13.40;;;-3.40;99.90;;;;;;5031352;28;20029;-55
2022/01/14 07:33:55;;;;;;;18.90;12.95;;;-3.40;99.90;;;;;;5030884;28;20032;-53
2022/01/14 07:36:21;;;;;;;18.58;11.32;;;-3.30;99.90;;;;;;5030931;28;20029;-56
2022/01/14 07:38:47;;;;;;;14.43;10.95;;;-3.30;99.90;;;;;;5030909;28;20370;-55
2022/01/14 07:41:14;;;;;;;21.35;12.18;;;-3.30;99.90;;;;;;5031284;28;20113;-54
2022/01/14 07:43:41;;;;;;;17.70;12.20;;;-3.10;99.90;;;;;;5031113;28;20024;-53
2022/01/14 07:46:07;;;;;;;32.25;13.38;;;-3.00;99.90;;;;;;5030885;28;20049;-56
2022/01/14 07:48:32;;;;;;;30.73;12.00;;;-2.90;99.90;;;;;;5031119;28;20494;-54
2022/01/14 07:50:58;;;;;;;21.05;14.90;;;-2.70;99.90;;;;;;5029945;28;20110;-54
2022/01/14 07:53:24;;;;;;;24.55;14.40;;;-2.70;99.90;;;;;;5031143;28;20026;-56
2022/01/14 07:55:50;;;;;;;20.80;10.75;;;-2.60;99.90;;;;;;5030998;28;20040;-56
2022/01/14 07:58:16;;;;;;;20.85;10.40;;;-2.50;99.90;;;;;;5031029;28;20032;-54
2022/01/14 08:00:42;;;;;;;116.32;50.65;;;-2.30;99.90;;;;;;5030796;28;20109;-56
2022/01/14 08:03:08;;;;;;;76.93;33.55;;;-2.20;99.90;;;;;;5031080;28;20026;-55
2022/01/14 08:05:35;;;;;;;17.05;11.55;;;-2.10;99.90;;;;;;5030755;28;20018;-55
2022/01/14 08:08:04;;;;;;;14.85;9.95;;;-2.00;99.90;;;;;;5030803;28;20021;-56
2022/01/14 08:10:31;;;;;;;13.15;9.48;;;-1.80;99.90;;;;;;5030708;28;20021;-55
2022/01/14 08:12:58;;;;;;;14.57;9.63;;;-1.60;99.90;;;;;;5030760;28;20053;-55
2022/01/14 08:15:24;;;;;;;14.35;8.98;;;-1.40;99.90;;;;;;5029237;28;20509;-54
2022/01/14 08:17:49;;;;;;;12.90;9.02;;;-1.20;99.90;;;;;;5030491;28;20068;-51
2022/01/14 08:20:15;;;;;;;10.57;8.88;;;-1.00;99.90;;;;;;5030646;28;20120;-52
2022/01/14 08:22:41;;;;;;;14.95;9.38;;;-0.90;99.90;;;;;;5030502;28;20022;-55
2022/01/14 08:25:09;;;;;;;12.55;8.35;;;-0.80;99.90;;;;;;5030523;28;20365;-55
2022/01/14 08:27:35;;;;;;;13.45;9.85;;;-0.60;99.90;;;;;;5030451;28;20053;-55
2022/01/14 08:30:01;;;;;;;15.05;9.82;;;-0.50;99.90;;;;;;5030508;28;20477;-55
2022/01/14 08:32:26;;;;;;;10.57;8.05;;;-0.40;99.90;;;;;;5030487;28;20021;-54
2022/01/14 08:34:52;;;;;;;11.73;8.63;;;-0.40;99.90;;;;;;5030414;28;20521;-54
2022/01/14 08:37:18;;;;;;;11.50;8.40;;;-0.30;99.90;;;;;;5030458;28;20021;-56
2022/01/14 08:39:44;;;;;;;12.10;9.18;;;-0.30;99.90;;;;;;5030334;28;20464;-51
2022/01/14 08:42:11;;;;;;;23.83;9.13;;;-0.30;99.90;;;;;;5029190;28;20358;-56
2022/01/14 08:44:36;;;;;;;12.15;8.35;;;-0.30;99.90;;;;;;5030128;28;20396;-55
2022/01/14 08:47:05;;;;;;;13.00;8.90;;;-0.20;99.90;;;;;;5030486;28;20021;-56
2022/01/14 08:49:31;;;;;;;10.98;8.15;;;-0.10;99.90;;;;;;5030289;28;20044;-56
2022/01/14 08:51:57;;;;;;;20.92;9.30;;;-0.10;99.90;;;;;;5030204;28;20101;-54
2022/01/14 08:54:23;;;;;;;17.02;9.65;;;0.00;99.90;;;;;;5029045;28;20063;-55
2022/01/14 08:56:48;;;;;;;12.23;7.85;;;0.10;99.90;;;;;;5030432;28;20072;-56
2022/01/14 08:59:16;;;;;;;10.25;7.68;;;0.30;99.90;;;;;;5034211;28;20264;-57
2022/01/14 09:01:43;;;;;;;10.75;8.18;;;0.50;99.90;;;;;;5032940;28;20070;-55
2022/01/14 09:04:09;;;;;;;9.98;7.10;;;0.60;99.90;;;;;;5034263;28;20032;-55
2022/01/14 09:06:35;;;;;;;10.38;7.97;;;0.70;99.90;;;;;;5034304;28;20029;-56
2022/01/14 09:09:01;;;;;;;13.90;7.82;;;0.80;99.90;;;;;;5034240;28;20489;-56
2022/01/14 09:11:26;;;;;;;14.07;7.97;;;0.90;99.90;;;;;;5034170;28;20044;-55
2022/01/14 09:13:52;;;;;;;12.98;8.43;;;1.00;99.90;;;;;;5033677;28;20423;-57
2022/01/14 09:16:20;;;;;;;12.10;7.32;;;1.10;99.90;;;;;;5034130;28;20107;-55
2022/01/14 09:18:47;;;;;;;11.07;7.90;;;1.20;99.90;;;;;;5033861;28;20025;-55
2022/01/14 09:21:14;;;;;;;8.23;6.93;;;1.40;99.90;;;;;;5034005;28;20508;-55
2022/01/14 09:23:40;;;;;;;9.07;7.30;;;1.50;99.90;;;;;;5033800;28;20064;-56
2022/01/14 09:26:05;;;;;;;9.35;7.18;;;1.60;99.90;;;;;;5033853;28;20048;-55
2022/01/14 09:28:33;;;;;;;8.75;6.38;;;1.70;99.90;;;;;;5033730;28;20124;-56
2022/01/14 09:30:58;;;;;;;6.85;6.15;;;1.90;99.90;;;;;;5033813;28;20432;-55
2022/01/14 09:33:24;;;;;;;12.75;7.20;;;2.00;99.90;;;;;;5033776;28;20344;-56
2022/01/14 09:35:50;;;;;;;11.20;7.15;;;2.20;99.90;;;;;;5033474;28;20075;-57
2022/01/14 09:38:17;;;;;;;8.73;6.72;;;2.40;99.90;;;;;;5033630;28;20029;-57
2022/01/14 09:40:47;;;;;;;12.48;6.15;;;2.70;99.90;;;;;;5033764;28;20108;-55
2022/01/14 09:43:14;;;;;;;10.63;6.65;;;3.70;99.90;;;;;;5033661;28;20491;-55
2022/01/14 09:45:40;;;;;;;9.48;5.18;;;5.50;99.90;;;;;;5033556;28;20056;-57
2022/01/14 09:48:06;;;;;;;10.43;5.72;;;7.40;98.20;;;;;;5033446;28;20057;-55
2022/01/14 09:50:32;;;;;;;6.15;5.10;;;9.10;93.20;;;;;;5033294;28;20026;-56
2022/01/14 09:52:57;;;;;;;8.82;4.88;;;10.30;84.80;;;;;;5033421;28;20570;-57
2022/01/14 09:55:24;;;;;;;5.15;4.50;;;11.40;76.40;;;;;;5033369;28;20037;-55
2022/01/14 09:57:53;;;;;;;6.85;4.78;;;12.00;70.70;;;;;;5033114;28;20564;-57
2022/01/14 10:00:20;;;;;;;6.97;4.35;;;12.40;66.10;;;;;;5032068;28;20116;-56
2022/01/14 10:02:45;;;;;;;6.78;4.57;;;12.60;64.90;;;;;;5033150;28;20431;-56
2022/01/14 10:05:36;;;;;;;8.13;3.90;;;13.10;62.10;;;;;;5033179;28;20021;-57
2022/01/14 10:08:22;;;;;;;5.30;3.42;;;13.70;59.40;;;;;;5033063;28;20618;-56
2022/01/14 10:10:53;;;;;;;6.15;3.65;;;14.10;57.00;;;;;;5032947;28;20056;-57
2022/01/14 10:13:24;;;;;;;5.35;4.13;;;14.80;53.80;;;;;;5033137;28;20388;-58
2022/01/14 10:15:53;;;;;;;9.57;3.53;;;15.20;53.70;;;;;;5032789;28;20052;-57
2022/01/14 10:18:21;;;;;;;5.57;4.03;;;15.40;51.70;;;;;;5032839;28;20428;-57
2022/01/14 10:20:48;;;;;;;13.30;4.57;;;15.50;51.60;;;;;;5031575;28;20021;-57
2022/01/14 10:23:15;;;;;;;3.92;3.53;;;15.50;50.30;;;;;;5032997;28;20079;-57
2022/01/14 10:25:41;;;;;;;4.45;2.88;;;15.20;50.20;;;;;;5032672;28;20033;-56
2022/01/14 10:28:18;;;;;;;6.07;3.28;;;14.80;50.60;;;;;;5032729;28;20028;-57
2022/01/14 10:30:46;;;;;;;11.38;3.17;;;14.80;50.60;;;;;;5031263;28;20025;-56
2022/01/14 10:33:12;;;;;;;4.22;3.35;;;14.70;51.10;;;;;;5032568;28;20473;-57
2022/01/14 10:35:42;;;;;;;6.18;3.47;;;14.80;51.60;;;;;;5032557;28;20025;-58
2022/01/14 10:38:10;;;;;;;11.63;3.13;;;15.10;51.30;;;;;;5032493;28;20035;-56
2022/01/14 10:40:41;;;;;;;9.32;3.30;;;13.50;51.40;;;;;;5031989;28;20087;-56
2022/01/14 10:43:11;;;;;;;6.15;2.58;;;13.10;52.30;;;;;;5032881;28;20025;-57
2022/01/14 10:45:38;;;;;;;14.27;2.03;;;12.90;52.80;;;;;;5032242;28;20119;-58
2022/01/14 10:48:06;;;;;;;3.67;2.75;;;13.90;51.30;;;;;;5032580;28;20366;-56
2022/01/14 10:50:51;;;;;;;1.85;1.70;;;14.40;50.60;;;;;;5031653;28;20017;-56
2022/01/14 10:53:30;;;;;;;6.80;2.75;;;16.30;48.60;;;;;;5031828;28;20041;-58
2022/01/14 10:56:06;;;;;;;2.20;1.98;;;16.20;46.10;;;;;;5032111;28;20022;-57
2022/01/14 10:58:44;;;;;;;2.58;1.98;;;16.40;45.90;;;;;;5031931;28;20029;-57
2022/01/14 11:01:13;;;;;;;1.65;1.55;;;15.40;46.70;;;;;;5032119;28;20044;-56
2022/01/14 11:03:41;;;;;;;2.38;1.98;;;15.20;48.20;;;;;;5031922;28;20024;-56
2022/01/14 11:06:25;;;;;;;1.83;1.67;;;14.80;48.10;;;;;;5032401;28;20404;-57
2022/01/14 11:09:02;;;;;;;2.53;2.17;;;14.70;48.00;;;;;;5032784;28;20033;-55
2022/01/14 11:11:30;;;;;;;3.83;3.25;;;14.50;47.90;;;;;;5033027;28;20048;-57
2022/01/14 11:13:56;;;;;;;17.73;14.95;;;13.80;49.80;;;;;;5030387;28;20025;-56
2022/01/14 11:16:22;;;;;;;11.35;3.45;;;14.10;49.20;;;;;;5021742;28;20524;-57
2022/01/14 11:18:48;;;;;;;2.33;1.83;;;14.40;47.20;;;;;;5022415;28;20319;-57
2022/01/14 11:23:59;;;;;;;4.20;2.40;;;16.30;45.60;;;;;;5022150;28;20044;-57
2022/01/14 11:26:31;;;;;;;2.28;1.67;;;16.50;45.10;;;;;;5022169;28;20037;-57
2022/01/14 11:29:08;;;;;;;4.53;1.88;;;15.70;45.40;;;;;;5021703;28;20075;-57
2022/01/14 11:31:37;;;;;;;1.77;1.65;;;15.90;45.70;;;;;;5021672;28;20026;-57
2022/01/14 11:34:05;;;;;;;2.55;1.38;;;16.10;45.90;;;;;;5022282;28;20048;-57
2022/01/14 11:36:58;;;;;;;2.13;1.63;;;16.90;44.40;;;;;;5021099;28;20120;-57
2022/01/14 11:39:27;;;;;;;17.60;3.97;;;14.90;47.30;;;;;;5022147;28;20037;-55
2022/01/14 11:42:14;;;;;;;7.65;2.40;;;15.80;44.70;;;;;;5020714;28;20021;-56
2022/01/14 11:44:57;;;;;;;3.42;2.45;;;16.90;42.60;;;;;;5021724;28;20026;-56
2022/01/14 11:47:25;;;;;;;8.38;2.30;;;16.30;42.70;;;;;;5022105;28;20018;-56
2022/01/14 11:49:56;;;;;;;3.25;1.77;;;17.60;41.40;;;;;;5016528;28;20033;-57
2022/01/14 11:52:42;;;;;;;6.22;1.95;;;17.70;41.40;;;;;;5004366;28;20053;-55
2022/01/14 11:55:23;;;;;;;2.08;1.73;;;17.90;41.10;;;;;;5020899;28;20057;-56
2022/01/14 11:57:48;;;;;;;1.25;1.20;;;17.40;42.30;;;;;;5020890;28;20037;-55
2022/01/14 12:00:26;;;;;;;5.25;1.83;;;17.30;42.90;;;;;;5021499;28;20036;-55
2022/01/14 12:03:07;;;;;;;3.45;1.70;;;17.80;41.40;;;;;;5020855;28;20430;-55
2022/01/14 12:05:35;;;;;;;3.13;2.30;;;18.30;40.20;;;;;;5020666;28;20096;-53
2022/01/14 12:08:11;;;;;;;8.02;1.90;;;17.80;40.20;;;;;;5021166;28;20033;-56
2022/01/14 12:10:45;;;;;;;2.47;1.75;;;17.30;42.60;;;;;;5013716;28;20026;-54
2022/01/14 12:13:27;;;;;;;2.47;1.90;;;17.40;41.80;;;;;;5021158;28;20488;-55
2022/01/14 12:15:59;;;;;;;2.20;1.75;;;17.10;41.80;;;;;;5020579;28;20057;-55
2022/01/14 12:18:59;;;;;;;3.22;2.55;;;17.00;42.60;;;;;;5021138;28;20475;-55
2022/01/14 12:21:43;;;;;;;2.17;1.95;;;15.20;43.50;;;;;;5020867;28;20038;-55
2022/01/14 12:24:30;;;;;;;14.98;5.25;;;15.00;45.90;;;;;;5021362;28;20033;-56
2022/01/14 12:27:00;;;;;;;3.42;3.13;;;15.30;45.70;;;;;;5020451;28;20549;-57
2022/01/14 12:29:34;;;;;;;8.35;5.45;;;16.40;44.10;;;;;;5020146;28;20476;-56
2022/01/14 12:32:13;;;;;;;5.20;2.08;;;14.60;46.90;;;;;;5020464;28;20036;-54
2022/01/14 12:34:44;;;;;;;42.10;15.35;;;16.40;44.60;;;;;;5021109;28;20710;-56
2022/01/14 12:37:20;;;;;;;53.33;16.52;;;15.30;44.50;;;;;;5021175;28;20034;-57
2022/01/14 12:39:48;;;;;;;3.00;2.60;;;17.00;43.50;;;;;;5019856;28;20469;-56
2022/01/14 12:42:14;;;;;;;11.95;5.53;;;18.20;42.40;;;;;;5020783;28;21035;-56
2022/01/14 12:44:40;;;;;;;5.32;2.60;;;16.80;41.70;;;;;;5019747;28;20100;-56
2022/01/14 12:47:09;;;;;;;16.40;9.30;;;17.70;43.10;;;;;;5020091;28;20388;-56
2022/01/14 12:49:40;;;;;;;6.45;3.97;;;14.70;46.10;;;;;;5020981;28;20036;-56
2022/01/14 12:52:16;;;;;;;7.97;3.15;;;15.60;46.50;;;;;;5020460;28;20465;-56
2022/01/14 12:54:46;;;;;;;8.38;2.70;;;15.10;47.20;;;;;;5021581;28;20495;-57
2022/01/14 12:57:16;;;;;;;2.53;2.22;;;17.20;44.60;;;;;;5020680;28;20065;-56
2022/01/14 12:59:48;;;;;;;3.72;2.35;;;16.00;45.20;;;;;;5020575;28;20038;-57
2022/01/14 13:02:21;;;;;;;2.60;2.30;;;16.20;45.30;;;;;;5020659;28;20029;-57
2022/01/14 13:05:03;;;;;;;5.82;4.80;;;16.50;44.80;;;;;;5021245;28;20024;-55
2022/01/14 13:07:30;;;;;;;8.63;5.53;;;15.60;45.10;;;;;;5019075;28;20050;-57